sensor_id;sensor_type;location;lat;lon;timestamp;temperature;humidity
19365;DHT22;9818;48.382;10.850;2022-12-10T00:01:47;1.30;99.90
19365;DHT22;9818;48.382;10.850;2022-12-10T00:04:16;1.30;99.90
19365;DHT22;9818;48.382;10.850;2022-12-10T00:06:44;1.40;99.90
19365;DHT22;9818;48.382;10.850;2022-12-10T00:09:14;1.40;99.90
19365;DHT22;9818;48.382;10.850;2022-12-10T00:11:42;1.20;99.90
19365;DHT22;9818;48.382;10.850;2022-12-10T00:14:11;1.30;99.90
19365;DHT22;9818;48.382;10.850;2022-12-10T00:16:42;1.20;99.90
19365;DHT22;9818;48.382;10.850;2022-12-10T00:19:11;1.30;99.90
19365;DHT22;9818;48.382;10.850;2022-12-10T00:21:39;1.40;99.90
19365;DHT22;9818;48.382;10.850;2022-12-10T00:24:09;1.10;99.90
19365;DHT22;9818;48.382;10.850;2022-12-10T00:26:38;1.20;99.90
19365;DHT22;9818;48.382;10.850;2022-12-10T00:29:07;1.30;99.90
19365;DHT22;9818;48.382;10.850;2022-12-10T00:31:37;1.40;99.90
19365;DHT22;9818;48.382;10.850;2022-12-10T00:34:09;1.40;99.90
19365;DHT22;9818;48.382;10.850;2022-12-10T00:36:38;1.60;99.90
19365;DHT22;9818;48.382;10.850;2022-12-10T00:39:07;1.40;99.90
19365;DHT22;9818;48.382;10.850;2022-12-10T00:41:37;1.40;99.90
19365;DHT22;9818;48.382;10.850;2022-12-10T00:44:05;1.50;99.90
19365;DHT22;9818;48.382;10.850;2022-12-10T00:46:33;1.50;99.90
19365;DHT22;9818;48.382;10.850;2022-12-10T00:49:02;1.60;99.90
19365;DHT22;9818;48.382;10.850;2022-12-10T00:51:33;1.80;99.90
19365;DHT22;9818;48.382;10.850;2022-12-10T00:54:02;1.80;99.90
19365;DHT22;9818;48.382;10.850;2022-12-10T00:56:31;1.80;99.90
19365;DHT22;9818;48.382;10.850;2022-12-10T00:59:00;1.80;99.90
19365;DHT22;9818;48.382;10.850;2022-12-10T01:01:30;1.80;99.90
19365;DHT22;9818;48.382;10.850;2022-12-10T01:04:00;1.70;99.90
19365;DHT22;9818;48.382;10.850;2022-12-10T01:06:29;1.60;99.90
19365;DHT22;9818;48.382;10.850;2022-12-10T01:20:30;1.60;99.90
19365;DHT22;9818;48.382;10.850;2022-12-10T01:23:02;1.30;99.90
19365;DHT22;9818;48.382;10.850;2022-12-10T01:25:30;1.20;99.90
19365;DHT22;9818;48.382;10.850;2022-12-10T01:27:58;1.20;99.90
19365;DHT22;9818;48.382;10.850;2022-12-10T01:30:27;1.20;99.90
19365;DHT22;9818;48.382;10.850;2022-12-10T01:32:55;1.20;99.90
19365;DHT22;9818;48.382;10.850;2022-12-10T01:35:24;1.00;99.90
19365;DHT22;9818;48.382;10.850;2022-12-10T01:37:58;1.00;99.90
19365;DHT22;9818;48.382;10.850;2022-12-10T01:40:27;1.10;99.90
19365;DHT22;9818;48.382;10.850;2022-12-10T01:42:55;1.10;99.90
19365;DHT22;9818;48.382;10.850;2022-12-10T01:45:24;1.10;99.90
19365;DHT22;9818;48.382;10.850;2022-12-10T01:47:52;1.20;99.90
19365;DHT22;9818;48.382;10.850;2022-12-10T01:50:21;1.30;99.90
19365;DHT22;9818;48.382;10.850;2022-12-10T01:52:49;1.20;99.90
19365;DHT22;9818;48.382;10.850;2022-12-10T01:55:40;1.00;99.90
19365;DHT22;9818;48.382;10.850;2022-12-10T01:58:10;1.10;99.90
19365;DHT22;9818;48.382;10.850;2022-12-10T02:00:41;1.10;99.90
19365;DHT22;9818;48.382;10.850;2022-12-10T02:03:13;1.10;99.90
19365;DHT22;9818;48.382;10.850;2022-12-10T02:05:42;1.10;99.90
19365;DHT22;9818;48.382;10.850;2022-12-10T02:08:18;1.20;99.90
19365;DHT22;9818;48.382;10.850;2022-12-10T02:10:54;1.20;99.90
19365;DHT22;9818;48.382;10.850;2022-12-10T02:13:27;1.30;99.90
19365;DHT22;9818;48.382;10.850;2022-12-10T02:15:58;1.10;99.90
19365;DHT22;9818;48.382;10.850;2022-12-10T02:18:31;1.00;99.90
19365;DHT22;9818;48.382;10.850;2022-12-10T02:21:00;1.00;99.90
19365;DHT22;9818;48.382;10.850;2022-12-10T02:23:31;1.10;99.90
19365;DHT22;9818;48.382;10.850;2022-12-10T02:26:04;1.00;99.90
19365;DHT22;9818;48.382;10.850;2022-12-10T02:28:38;1.00;99.90
19365;DHT22;9818;48.382;10.850;2022-12-10T02:31:13;0.90;99.90
19365;DHT22;9818;48.382;10.850;2022-12-10T02:33:43;1.00;99.90
19365;DHT22;9818;48.382;10.850;2022-12-10T02:36:13;1.00;99.90
19365;DHT22;9818;48.382;10.850;2022-12-10T02:38:42;1.00;99.90
19365;DHT22;9818;48.382;10.850;2022-12-10T02:41:12;1.00;99.90
19365;DHT22;9818;48.382;10.850;2022-12-10T02:43:42;0.90;99.90
19365;DHT22;9818;48.382;10.850;2022-12-10T02:46:14;0.80;99.90
19365;DHT22;9818;48.382;10.850;2022-12-10T02:48:44;0.80;99.90
19365;DHT22;9818;48.382;10.850;2022-12-10T02:51:13;0.90;99.90
19365;DHT22;9818;48.382;10.850;2022-12-10T02:53:42;0.80;99.90
19365;DHT22;9818;48.382;10.850;2022-12-10T02:56:13;0.90;99.90
19365;DHT22;9818;48.382;10.850;2022-12-10T02:58:44;0.90;99.90
19365;DHT22;9818;48.382;10.850;2022-12-10T03:01:19;0.80;99.90
19365;DHT22;9818;48.382;10.850;2022-12-10T03:03:51;0.70;99.90
19365;DHT22;9818;48.382;10.850;2022-12-10T03:06:22;0.70;99.90
19365;DHT22;9818;48.382;10.850;2022-12-10T03:08:54;0.70;99.90
19365;DHT22;9818;48.382;10.850;2022-12-10T03:11:27;0.70;99.90
19365;DHT22;9818;48.382;10.850;2022-12-10T03:13:57;0.60;99.90
19365;DHT22;9818;48.382;10.850;2022-12-10T03:16:31;0.70;99.90
19365;DHT22;9818;48.382;10.850;2022-12-10T03:19:02;0.70;99.90
19365;DHT22;9818;48.382;10.850;2022-12-10T03:21:32;0.80;99.90
19365;DHT22;9818;48.382;10.850;2022-12-10T03:24:01;0.80;99.90
19365;DHT22;9818;48.382;10.850;2022-12-10T03:26:30;0.90;99.90
19365;DHT22;9818;48.382;10.850;2022-12-10T03:29:00;0.80;99.90
19365;DHT22;9818;48.382;10.850;2022-12-10T03:31:32;0.80;99.90
19365;DHT22;9818;48.382;10.850;2022-12-10T03:34:02;0.80;99.90
19365;DHT22;9818;48.382;10.850;2022-12-10T03:36:31;0.70;99.90
19365;DHT22;9818;48.382;10.850;2022-12-10T03:38:59;0.80;99.90
19365;DHT22;9818;48.382;10.850;2022-12-10T03:41:28;0.70;99.90
19365;DHT22;9818;48.382;10.850;2022-12-10T03:43:57;0.70;99.90
19365;DHT22;9818;48.382;10.850;2022-12-10T03:46:27;0.80;99.90
19365;DHT22;9818;48.382;10.850;2022-12-10T03:48:59;0.90;99.90
19365;DHT22;9818;48.382;10.850;2022-12-10T03:51:28;0.90;99.90
19365;DHT22;9818;48.382;10.850;2022-12-10T03:53:56;0.80;99.90
19365;DHT22;9818;48.382;10.850;2022-12-10T03:56:25;0.90;99.90
19365;DHT22;9818;48.382;10.850;2022-12-10T03:58:53;1.00;99.90
19365;DHT22;9818;48.382;10.850;2022-12-10T04:01:22;0.90;99.90
19365;DHT22;9818;48.382;10.850;2022-12-10T04:03:50;0.90;99.90
19365;DHT22;9818;48.382;10.850;2022-12-10T04:06:21;0.90;99.90
19365;DHT22;9818;48.382;10.850;2022-12-10T04:08:51;0.90;99.90
19365;DHT22;9818;48.382;10.850;2022-12-10T04:11:20;0.70;99.90
19365;DHT22;9818;48.382;10.850;2022-12-10T04:13:48;0.80;99.90
19365;DHT22;9818;48.382;10.850;2022-12-10T04:16:30;0.80;99.90
19365;DHT22;9818;48.382;10.850;2022-12-10T04:19:00;0.90;99.90
19365;DHT22;9818;48.382;10.850;2022-12-10T04:21:31;0.80;99.90
19365;DHT22;9818;48.382;10.850;2022-12-10T04:24:13;0.70;99.90
19365;DHT22;9818;48.382;10.850;2022-12-10T04:26:54;0.80;99.90
19365;DHT22;9818;48.382;10.850;2022-12-10T04:29:24;0.80;99.90
19365;DHT22;9818;48.382;10.850;2022-12-10T04:31:52;0.80;99.90
19365;DHT22;9818;48.382;10.850;2022-12-10T04:34:21;0.80;99.90
19365;DHT22;9818;48.382;10.850;2022-12-10T04:36:53;0.90;99.90
19365;DHT22;9818;48.382;10.850;2022-12-10T04:39:21;0.90;99.90
19365;DHT22;9818;48.382;10.850;2022-12-10T04:41:50;0.80;99.90
19365;DHT22;9818;48.382;10.850;2022-12-10T04:44:18;1.00;99.90
19365;DHT22;9818;48.382;10.850;2022-12-10T04:46:47;1.10;99.90
19365;DHT22;9818;48.382;10.850;2022-12-10T04:49:16;0.80;99.90
19365;DHT22;9818;48.382;10.850;2022-12-10T04:51:44;0.90;99.90
19365;DHT22;9818;48.382;10.850;2022-12-10T04:54:16;0.80;99.90
19365;DHT22;9818;48.382;10.850;2022-12-10T04:56:45;0.70;99.90
19365;DHT22;9818;48.382;10.850;2022-12-10T04:59:14;0.70;99.90
19365;DHT22;9818;48.382;10.850;2022-12-10T05:01:44;0.90;99.90
19365;DHT22;9818;48.382;10.850;2022-12-10T05:04:13;0.90;99.90
19365;DHT22;9818;48.382;10.850;2022-12-10T05:06:42;1.10;99.90
19365;DHT22;9818;48.382;10.850;2022-12-10T05:09:11;1.20;99.90
19365;DHT22;9818;48.382;10.850;2022-12-10T05:11:45;1.10;99.90
19365;DHT22;9818;48.382;10.850;2022-12-10T05:14:13;0.90;99.90
19365;DHT22;9818;48.382;10.850;2022-12-10T05:16:42;0.80;99.90
19365;DHT22;9818;48.382;10.850;2022-12-10T05:19:10;0.80;99.90
19365;DHT22;9818;48.382;10.850;2022-12-10T05:21:39;0.80;99.90
19365;DHT22;9818;48.382;10.850;2022-12-10T05:24:26;0.90;99.90
19365;DHT22;9818;48.382;10.850;2022-12-10T05:26:59;0.70;99.90
19365;DHT22;9818;48.382;10.850;2022-12-10T05:29:27;0.70;99.90
19365;DHT22;9818;48.382;10.850;2022-12-10T05:31:56;0.70;99.90
19365;DHT22;9818;48.382;10.850;2022-12-10T05:34:24;0.70;99.90
19365;DHT22;9818;48.382;10.850;2022-12-10T05:36:52;0.70;99.90
19365;DHT22;9818;48.382;10.850;2022-12-10T05:39:21;0.70;99.90
19365;DHT22;9818;48.382;10.850;2022-12-10T05:41:49;0.70;99.90
19365;DHT22;9818;48.382;10.850;2022-12-10T05:44:20;0.60;99.90
19365;DHT22;9818;48.382;10.850;2022-12-10T05:46:49;0.60;99.90
19365;DHT22;9818;48.382;10.850;2022-12-10T05:49:17;0.60;99.90
19365;DHT22;9818;48.382;10.850;2022-12-10T05:51:46;0.70;99.90
19365;DHT22;9818;48.382;10.850;2022-12-10T05:54:14;0.60;99.90
19365;DHT22;9818;48.382;10.850;2022-12-10T05:56:42;0.70;99.90
19365;DHT22;9818;48.382;10.850;2022-12-10T05:59:11;0.70;99.90
19365;DHT22;9818;48.382;10.850;2022-12-10T06:01:42;0.80;99.90
19365;DHT22;9818;48.382;10.850;2022-12-10T06:04:11;0.80;99.90
19365;DHT22;9818;48.382;10.850;2022-12-10T06:06:40;0.70;99.90
19365;DHT22;9818;48.382;10.850;2022-12-10T06:09:11;0.80;99.90
19365;DHT22;9818;48.382;10.850;2022-12-10T06:11:40;0.80;99.90
19365;DHT22;9818;48.382;10.850;2022-12-10T06:14:08;0.80;99.90
19365;DHT22;9818;48.382;10.850;2022-12-10T06:16:38;0.70;99.90
19365;DHT22;9818;48.382;10.850;2022-12-10T06:19:09;0.70;99.90
19365;DHT22;9818;48.382;10.850;2022-12-10T06:21:37;0.70;99.90
19365;DHT22;9818;48.382;10.850;2022-12-10T06:24:06;0.70;99.90
19365;DHT22;9818;48.382;10.850;2022-12-10T06:26:34;0.70;99.90
19365;DHT22;9818;48.382;10.850;2022-12-10T06:29:03;0.90;99.90
19365;DHT22;9818;48.382;10.850;2022-12-10T06:31:32;0.90;99.90
19365;DHT22;9818;48.382;10.850;2022-12-10T06:34:01;0.90;99.90
19365;DHT22;9818;48.382;10.850;2022-12-10T06:36:32;1.00;99.90
19365;DHT22;9818;48.382;10.850;2022-12-10T06:39:01;0.80;99.90
19365;DHT22;9818;48.382;10.850;2022-12-10T06:41:29;0.90;99.90
19365;DHT22;9818;48.382;10.850;2022-12-10T06:43:58;0.90;99.90
19365;DHT22;9818;48.382;10.850;2022-12-10T06:46:26;0.90;99.90
19365;DHT22;9818;48.382;10.850;2022-12-10T06:48:55;0.80;99.90
19365;DHT22;9818;48.382;10.850;2022-12-10T06:51:24;1.00;99.90
19365;DHT22;9818;48.382;10.850;2022-12-10T06:53:55;0.90;99.90
19365;DHT22;9818;48.382;10.850;2022-12-10T06:56:23;0.90;99.90
19365;DHT22;9818;48.382;10.850;2022-12-10T06:58:53;0.90;99.90
19365;DHT22;9818;48.382;10.850;2022-12-10T07:01:22;0.90;99.90
19365;DHT22;9818;48.382;10.850;2022-12-10T07:03:52;0.90;99.90
19365;DHT22;9818;48.382;10.850;2022-12-10T07:06:21;0.80;99.90
19365;DHT22;9818;48.382;10.850;2022-12-10T07:08:49;0.80;99.90
19365;DHT22;9818;48.382;10.850;2022-12-10T07:11:21;0.90;99.90
19365;DHT22;9818;48.382;10.850;2022-12-10T07:13:50;0.90;99.90
19365;DHT22;9818;48.382;10.850;2022-12-10T07:16:19;0.80;99.90
19365;DHT22;9818;48.382;10.850;2022-12-10T07:18:48;0.80;99.90
19365;DHT22;9818;48.382;10.850;2022-12-10T07:21:18;1.00;99.90
19365;DHT22;9818;48.382;10.850;2022-12-10T07:23:47;1.10;99.90
19365;DHT22;9818;48.382;10.850;2022-12-10T07:26:16;1.10;99.90
19365;DHT22;9818;48.382;10.850;2022-12-10T07:28:47;1.20;99.90
19365;DHT22;9818;48.382;10.850;2022-12-10T07:31:15;1.40;99.90
19365;DHT22;9818;48.382;10.850;2022-12-10T07:33:44;1.30;99.90
19365;DHT22;9818;48.382;10.850;2022-12-10T07:36:12;1.10;99.90
19365;DHT22;9818;48.382;10.850;2022-12-10T07:38:41;1.00;99.90
19365;DHT22;9818;48.382;10.850;2022-12-10T07:41:09;0.90;99.90
19365;DHT22;9818;48.382;10.850;2022-12-10T07:43:38;1.10;99.90
19365;DHT22;9818;48.382;10.850;2022-12-10T07:46:10;1.20;99.90
19365;DHT22;9818;48.382;10.850;2022-12-10T07:48:39;1.10;99.90
19365;DHT22;9818;48.382;10.850;2022-12-10T07:51:08;1.00;99.90
19365;DHT22;9818;48.382;10.850;2022-12-10T07:53:37;1.00;99.90
19365;DHT22;9818;48.382;10.850;2022-12-10T07:56:05;1.00;99.90
19365;DHT22;9818;48.382;10.850;2022-12-10T07:58:34;0.90;99.90
19365;DHT22;9818;48.382;10.850;2022-12-10T08:01:05;1.00;99.90
19365;DHT22;9818;48.382;10.850;2022-12-10T08:03:37;1.00;99.90
19365;DHT22;9818;48.382;10.850;2022-12-10T08:06:07;0.90;99.90
19365;DHT22;9818;48.382;10.850;2022-12-10T08:08:36;0.80;99.90
19365;DHT22;9818;48.382;10.850;2022-12-10T08:11:05;0.80;99.90
19365;DHT22;9818;48.382;10.850;2022-12-10T08:13:34;0.80;99.90
19365;DHT22;9818;48.382;10.850;2022-12-10T08:16:03;0.80;99.90
19365;DHT22;9818;48.382;10.850;2022-12-10T08:18:33;0.80;99.90
19365;DHT22;9818;48.382;10.850;2022-12-10T08:21:05;0.70;99.90
19365;DHT22;9818;48.382;10.850;2022-12-10T08:23:34;0.80;99.90
19365;DHT22;9818;48.382;10.850;2022-12-10T08:26:03;0.70;99.90
19365;DHT22;9818;48.382;10.850;2022-12-10T08:28:32;0.80;99.90
19365;DHT22;9818;48.382;10.850;2022-12-10T08:31:01;0.90;99.90
19365;DHT22;9818;48.382;10.850;2022-12-10T08:33:32;1.00;99.90
19365;DHT22;9818;48.382;10.850;2022-12-10T08:36:01;1.20;99.90
19365;DHT22;9818;48.382;10.850;2022-12-10T08:38:33;1.20;99.90
19365;DHT22;9818;48.382;10.850;2022-12-10T08:41:05;1.10;99.90
19365;DHT22;9818;48.382;10.850;2022-12-10T08:43:33;1.00;99.90
19365;DHT22;9818;48.382;10.850;2022-12-10T08:46:02;1.00;99.90
19365;DHT22;9818;48.382;10.850;2022-12-10T08:48:30;1.10;99.90
19365;DHT22;9818;48.382;10.850;2022-12-10T08:50:59;1.30;99.90
19365;DHT22;9818;48.382;10.850;2022-12-10T08:53:27;1.10;99.90
19365;DHT22;9818;48.382;10.850;2022-12-10T08:55:58;1.10;99.90
19365;DHT22;9818;48.382;10.850;2022-12-10T08:58:27;1.20;99.90
19365;DHT22;9818;48.382;10.850;2022-12-10T09:00:56;1.40;99.90
19365;DHT22;9818;48.382;10.850;2022-12-10T09:03:24;1.50;99.90
19365;DHT22;9818;48.382;10.850;2022-12-10T09:05:53;1.50;99.90
19365;DHT22;9818;48.382;10.850;2022-12-10T09:08:21;1.30;99.90
19365;DHT22;9818;48.382;10.850;2022-12-10T09:10:49;1.40;99.90
19365;DHT22;9818;48.382;10.850;2022-12-10T09:13:20;1.40;99.90
19365;DHT22;9818;48.382;10.850;2022-12-10T09:15:49;1.50;99.90
19365;DHT22;9818;48.382;10.850;2022-12-10T09:18:19;1.20;99.90
19365;DHT22;9818;48.382;10.850;2022-12-10T09:20:47;1.20;99.90
19365;DHT22;9818;48.382;10.850;2022-12-10T09:23:15;1.20;99.90
19365;DHT22;9818;48.382;10.850;2022-12-10T09:25:44;1.20;99.90
19365;DHT22;9818;48.382;10.850;2022-12-10T09:28:12;1.40;99.90
19365;DHT22;9818;48.382;10.850;2022-12-10T09:30:43;1.50;99.90
19365;DHT22;9818;48.382;10.850;2022-12-10T09:33:12;1.40;99.90
19365;DHT22;9818;48.382;10.850;2022-12-10T09:35:40;1.40;99.90
19365;DHT22;9818;48.382;10.850;2022-12-10T09:38:09;1.40;99.90
19365;DHT22;9818;48.382;10.850;2022-12-10T09:40:39;1.70;99.90
19365;DHT22;9818;48.382;10.850;2022-12-10T09:43:11;1.70;99.90
19365;DHT22;9818;48.382;10.850;2022-12-10T09:45:47;1.60;99.90
19365;DHT22;9818;48.382;10.850;2022-12-10T09:48:21;1.60;99.90
19365;DHT22;9818;48.382;10.850;2022-12-10T09:50:53;1.50;99.90
19365;DHT22;9818;48.382;10.850;2022-12-10T09:53:24;1.40;99.90
19365;DHT22;9818;48.382;10.850;2022-12-10T09:55:55;1.30;99.90
19365;DHT22;9818;48.382;10.850;2022-12-10T09:58:25;1.30;99.90
19365;DHT22;9818;48.382;10.850;2022-12-10T10:00:58;1.40;99.90
19365;DHT22;9818;48.382;10.850;2022-12-10T10:03:27;1.60;99.90
19365;DHT22;9818;48.382;10.850;2022-12-10T10:05:57;1.50;99.90
19365;DHT22;9818;48.382;10.850;2022-12-10T10:08:27;1.90;99.90
19365;DHT22;9818;48.382;10.850;2022-12-10T10:10:56;2.00;99.90
19365;DHT22;9818;48.382;10.850;2022-12-10T10:13:29;2.10;99.90
19365;DHT22;9818;48.382;10.850;2022-12-10T10:16:07;2.10;99.90
19365;DHT22;9818;48.382;10.850;2022-12-10T10:18:39;2.20;99.90
19365;DHT22;9818;48.382;10.850;2022-12-10T10:21:11;2.10;99.90
19365;DHT22;9818;48.382;10.850;2022-12-10T10:23:41;2.10;99.90
19365;DHT22;9818;48.382;10.850;2022-12-10T10:26:11;2.00;99.90
19365;DHT22;9818;48.382;10.850;2022-12-10T10:28:40;1.90;99.90
19365;DHT22;9818;48.382;10.850;2022-12-10T10:31:15;1.90;99.90
19365;DHT22;9818;48.382;10.850;2022-12-10T10:33:47;1.40;99.90
19365;DHT22;9818;48.382;10.850;2022-12-10T10:36:16;1.40;99.90
19365;DHT22;9818;48.382;10.850;2022-12-10T10:38:47;1.70;99.90
19365;DHT22;9818;48.382;10.850;2022-12-10T10:41:16;1.80;99.90
19365;DHT22;9818;48.382;10.850;2022-12-10T10:43:44;1.90;99.90
19365;DHT22;9818;48.382;10.850;2022-12-10T10:46:16;2.10;99.90
19365;DHT22;9818;48.382;10.850;2022-12-10T10:48:45;2.10;99.90
19365;DHT22;9818;48.382;10.850;2022-12-10T10:51:15;1.80;99.90
19365;DHT22;9818;48.382;10.850;2022-12-10T10:53:48;1.80;99.90
19365;DHT22;9818;48.382;10.850;2022-12-10T10:56:18;1.70;99.90
19365;DHT22;9818;48.382;10.850;2022-12-10T10:58:50;1.90;99.90
19365;DHT22;9818;48.382;10.850;2022-12-10T11:01:23;1.50;99.90
19365;DHT22;9818;48.382;10.850;2022-12-10T11:03:53;1.40;99.90
19365;DHT22;9818;48.382;10.850;2022-12-10T11:06:22;1.30;99.90
19365;DHT22;9818;48.382;10.850;2022-12-10T11:08:53;1.30;99.90
19365;DHT22;9818;48.382;10.850;2022-12-10T11:11:31;1.30;99.90
19365;DHT22;9818;48.382;10.850;2022-12-10T11:14:12;1.30;99.90
19365;DHT22;9818;48.382;10.850;2022-12-10T11:16:44;1.60;99.90
19365;DHT22;9818;48.382;10.850;2022-12-10T11:19:17;1.60;99.90
19365;DHT22;9818;48.382;10.850;2022-12-10T11:21:46;1.50;99.90
19365;DHT22;9818;48.382;10.850;2022-12-10T11:24:15;1.50;99.90
19365;DHT22;9818;48.382;10.850;2022-12-10T11:26:56;1.50;99.90
19365;DHT22;9818;48.382;10.850;2022-12-10T11:29:40;1.50;99.90
19365;DHT22;9818;48.382;10.850;2022-12-10T11:32:17;1.60;99.90
19365;DHT22;9818;48.382;10.850;2022-12-10T11:34:52;1.50;99.90
19365;DHT22;9818;48.382;10.850;2022-12-10T11:37:24;1.20;99.90
19365;DHT22;9818;48.382;10.850;2022-12-10T11:39:58;1.40;99.90
19365;DHT22;9818;48.382;10.850;2022-12-10T11:42:33;1.50;99.90
19365;DHT22;9818;48.382;10.850;2022-12-10T11:45:07;1.70;99.90
19365;DHT22;9818;48.382;10.850;2022-12-10T11:47:43;1.70;99.90
19365;DHT22;9818;48.382;10.850;2022-12-10T11:50:14;1.50;99.90
19365;DHT22;9818;48.382;10.850;2022-12-10T11:52:47;1.70;99.90
19365;DHT22;9818;48.382;10.850;2022-12-10T11:55:23;1.50;99.90
19365;DHT22;9818;48.382;10.850;2022-12-10T11:57:56;1.40;99.90
19365;DHT22;9818;48.382;10.850;2022-12-10T12:00:31;1.50;99.90
19365;DHT22;9818;48.382;10.850;2022-12-10T12:03:28;1.50;99.90
19365;DHT22;9818;48.382;10.850;2022-12-10T12:06:05;1.50;99.90
19365;DHT22;9818;48.382;10.850;2022-12-10T12:08:40;1.60;99.90
19365;DHT22;9818;48.382;10.850;2022-12-10T12:11:14;1.70;99.90
19365;DHT22;9818;48.382;10.850;2022-12-10T12:13:48;1.70;99.90
19365;DHT22;9818;48.382;10.850;2022-12-10T12:16:21;1.80;99.90
19365;DHT22;9818;48.382;10.850;2022-12-10T12:18:53;1.80;99.90
19365;DHT22;9818;48.382;10.850;2022-12-10T12:21:23;1.80;99.90
19365;DHT22;9818;48.382;10.850;2022-12-10T12:23:52;2.10;99.90
19365;DHT22;9818;48.382;10.850;2022-12-10T12:26:24;2.30;99.90
19365;DHT22;9818;48.382;10.850;2022-12-10T12:28:55;1.90;99.90
19365;DHT22;9818;48.382;10.850;2022-12-10T12:31:26;1.90;99.90
19365;DHT22;9818;48.382;10.850;2022-12-10T12:34:01;1.80;99.90
19365;DHT22;9818;48.382;10.850;2022-12-10T12:36:31;2.20;99.90
19365;DHT22;9818;48.382;10.850;2022-12-10T12:39:02;2.30;99.90
19365;DHT22;9818;48.382;10.850;2022-12-10T12:41:34;2.30;99.90
19365;DHT22;9818;48.382;10.850;2022-12-10T12:44:09;2.00;99.90
19365;DHT22;9818;48.382;10.850;2022-12-10T12:46:39;2.10;99.90
19365;DHT22;9818;48.382;10.850;2022-12-10T12:49:13;2.00;99.90
19365;DHT22;9818;48.382;10.850;2022-12-10T12:51:44;1.90;99.90
19365;DHT22;9818;48.382;10.850;2022-12-10T12:54:14;1.90;99.90
19365;DHT22;9818;48.382;10.850;2022-12-10T12:56:49;1.90;99.90
19365;DHT22;9818;48.382;10.850;2022-12-10T12:59:24;1.80;99.90
19365;DHT22;9818;48.382;10.850;2022-12-10T13:01:58;1.80;99.90
19365;DHT22;9818;48.382;10.850;2022-12-10T13:04:33;1.80;99.90
19365;DHT22;9818;48.382;10.850;2022-12-10T13:07:09;1.60;99.90
19365;DHT22;9818;48.382;10.850;2022-12-10T13:09:42;1.70;99.90
19365;DHT22;9818;48.382;10.850;2022-12-10T13:12:24;1.70;99.90
19365;DHT22;9818;48.382;10.850;2022-12-10T13:14:55;1.70;99.90
19365;DHT22;9818;48.382;10.850;2022-12-10T13:17:32;1.50;99.90
19365;DHT22;9818;48.382;10.850;2022-12-10T13:22:53;1.30;99.90
19365;DHT22;9818;48.382;10.850;2022-12-10T13:25:37;1.30;99.90
19365;DHT22;9818;48.382;10.850;2022-12-10T13:28:16;1.30;99.90
19365;DHT22;9818;48.382;10.850;2022-12-10T13:33:44;1.30;99.90
19365;DHT22;9818;48.382;10.850;2022-12-10T13:36:13;1.20;99.90
19365;DHT22;9818;48.382;10.850;2022-12-10T13:38:57;1.30;99.90
19365;DHT22;9818;48.382;10.850;2022-12-10T13:41:26;1.30;99.90
19365;DHT22;9818;48.382;10.850;2022-12-10T13:44:24;1.30;99.90
19365;DHT22;9818;48.382;10.850;2022-12-10T13:46:57;1.30;99.90
19365;DHT22;9818;48.382;10.850;2022-12-10T13:49:26;1.30;99.90
19365;DHT22;9818;48.382;10.850;2022-12-10T13:51:58;1.20;99.90
19365;DHT22;9818;48.382;10.850;2022-12-10T13:57:20;1.30;99.90
19365;DHT22;9818;48.382;10.850;2022-12-10T13:59:52;1.20;99.90
19365;DHT22;9818;48.382;10.850;2022-12-10T14:05:16;1.10;99.90
19365;DHT22;9818;48.382;10.850;2022-12-10T14:07:46;1.10;99.90
19365;DHT22;9818;48.382;10.850;2022-12-10T14:10:17;1.10;99.90
19365;DHT22;9818;48.382;10.850;2022-12-10T14:12:50;1.00;99.90
19365;DHT22;9818;48.382;10.850;2022-12-10T14:15:20;1.10;99.90
19365;DHT22;9818;48.382;10.850;2022-12-10T14:17:51;1.10;99.90
19365;DHT22;9818;48.382;10.850;2022-12-10T14:20:22;1.20;99.90
19365;DHT22;9818;48.382;10.850;2022-12-10T14:22:52;1.20;99.90
19365;DHT22;9818;48.382;10.850;2022-12-10T14:25:41;1.10;99.90
19365;DHT22;9818;48.382;10.850;2022-12-10T14:28:13;1.10;99.90
19365;DHT22;9818;48.382;10.850;2022-12-10T14:30:43;1.10;99.90
19365;DHT22;9818;48.382;10.850;2022-12-10T14:33:14;1.10;99.90
19365;DHT22;9818;48.382;10.850;2022-12-10T14:35:46;1.10;99.90
19365;DHT22;9818;48.382;10.850;2022-12-10T14:38:16;1.00;99.90
19365;DHT22;9818;48.382;10.850;2022-12-10T14:40:46;1.00;99.90
19365;DHT22;9818;48.382;10.850;2022-12-10T14:43:20;1.10;99.90
19365;DHT22;9818;48.382;10.850;2022-12-10T14:45:49;0.90;99.90
19365;DHT22;9818;48.382;10.850;2022-12-10T14:48:19;0.80;99.90
19365;DHT22;9818;48.382;10.850;2022-12-10T14:50:48;0.90;99.90
19365;DHT22;9818;48.382;10.850;2022-12-10T14:53:17;0.90;99.90
19365;DHT22;9818;48.382;10.850;2022-12-10T14:55:46;0.90;99.90
19365;DHT22;9818;48.382;10.850;2022-12-10T14:58:16;0.90;99.90
19365;DHT22;9818;48.382;10.850;2022-12-10T15:00:49;0.90;99.90
19365;DHT22;9818;48.382;10.850;2022-12-10T15:03:21;0.90;99.90
19365;DHT22;9818;48.382;10.850;2022-12-10T15:05:53;0.80;99.90
19365;DHT22;9818;48.382;10.850;2022-12-10T15:08:25;0.90;99.90
19365;DHT22;9818;48.382;10.850;2022-12-10T15:10:54;0.90;99.90
19365;DHT22;9818;48.382;10.850;2022-12-10T15:13:24;0.70;99.90
19365;DHT22;9818;48.382;10.850;2022-12-10T15:15:56;0.70;99.90
19365;DHT22;9818;48.382;10.850;2022-12-10T15:18:26;0.60;99.90
19365;DHT22;9818;48.382;10.850;2022-12-10T15:21:03;0.60;99.90
19365;DHT22;9818;48.382;10.850;2022-12-10T15:23:35;0.60;99.90
19365;DHT22;9818;48.382;10.850;2022-12-10T15:26:10;0.60;99.90
19365;DHT22;9818;48.382;10.850;2022-12-10T15:28:41;0.70;99.90
19365;DHT22;9818;48.382;10.850;2022-12-10T15:31:13;0.70;99.90
19365;DHT22;9818;48.382;10.850;2022-12-10T15:33:45;0.70;99.90
19365;DHT22;9818;48.382;10.850;2022-12-10T15:36:19;0.70;99.90
19365;DHT22;9818;48.382;10.850;2022-12-10T15:38:48;0.70;99.90
19365;DHT22;9818;48.382;10.850;2022-12-10T15:41:42;0.80;99.90
19365;DHT22;9818;48.382;10.850;2022-12-10T15:44:18;0.80;99.90
19365;DHT22;9818;48.382;10.850;2022-12-10T15:46:50;1.10;99.90
19365;DHT22;9818;48.382;10.850;2022-12-10T15:49:19;0.80;99.90
19365;DHT22;9818;48.382;10.850;2022-12-10T15:51:47;0.90;99.90
19365;DHT22;9818;48.382;10.850;2022-12-10T15:54:20;0.90;99.90
19365;DHT22;9818;48.382;10.850;2022-12-10T15:56:48;0.90;99.90
19365;DHT22;9818;48.382;10.850;2022-12-10T15:59:17;0.90;99.90
19365;DHT22;9818;48.382;10.850;2022-12-10T16:01:45;0.90;99.90
19365;DHT22;9818;48.382;10.850;2022-12-10T16:04:16;0.90;99.90
19365;DHT22;9818;48.382;10.850;2022-12-10T16:06:45;1.00;99.90
19365;DHT22;9818;48.382;10.850;2022-12-10T16:09:16;1.00;99.90
19365;DHT22;9818;48.382;10.850;2022-12-10T16:11:44;1.00;99.90
19365;DHT22;9818;48.382;10.850;2022-12-10T16:14:13;1.00;99.90
19365;DHT22;9818;48.382;10.850;2022-12-10T16:16:41;1.00;99.90
19365;DHT22;9818;48.382;10.850;2022-12-10T16:19:10;1.00;99.90
19365;DHT22;9818;48.382;10.850;2022-12-10T16:21:43;1.00;99.90
19365;DHT22;9818;48.382;10.850;2022-12-10T16:24:13;1.00;99.90
19365;DHT22;9818;48.382;10.850;2022-12-10T16:26:43;0.90;99.90
19365;DHT22;9818;48.382;10.850;2022-12-10T16:29:11;0.90;99.90
19365;DHT22;9818;48.382;10.850;2022-12-10T16:31:41;0.90;99.90